Time;durP1;ratioP1;P1;durP2;ratioP2;P2;SDS_P1;SDS_P2;PMS_P1;PMS_P2;Temp;Humidity;BMP_temperature;BMP_pressure;BME280_temperature;BME280_humidity;BME280_pressure;Samples;Min_cycle;Max_cycle;Signal;HPM_P1;HPM_P2
2022/05/01 00:01:06;;;;;;;15.68;13.02;;;;;;;8.29;82.14;102438.63;5074397;28;20036;-71
2022/05/01 00:03:31;;;;;;;18.13;13.00;;;;;;;8.27;82.52;102448.97;5071601;28;20107;-72
2022/05/01 00:05:58;;;;;;;16.45;12.82;;;;;;;8.26;82.50;102443.78;5074878;28;20380;-71
2022/05/01 00:08:23;;;;;;;18.83;13.65;;;;;;;8.25;82.54;102452.44;5071107;28;20164;-71
2022/05/01 00:10:49;;;;;;;19.75;13.73;;;;;;;8.23;82.61;102449.81;5071982;28;20099;-71
2022/05/01 00:13:15;;;;;;;17.73;13.48;;;;;;;8.20;82.02;102445.44;5071965;28;20063;-71
2022/05/01 00:15:40;;;;;;;18.70;13.45;;;;;;;8.20;82.41;102450.63;5071223;28;20492;-71
2022/05/01 00:18:06;;;;;;;20.40;13.48;;;;;;;8.16;82.18;102448.00;5076009;28;20048;-72
2022/05/01 00:20:31;;;;;;;19.33;12.60;;;;;;;8.18;82.76;102441.09;5071086;28;20485;-71
2022/05/01 00:22:56;;;;;;;17.80;12.45;;;;;;;8.21;81.88;102446.34;5075179;28;20025;-71
2022/05/01 00:25:21;;;;;;;18.50;13.30;;;;;;;8.22;82.57;102442.88;5071579;28;20028;-71
2022/05/01 00:27:47;;;;;;;19.80;13.45;;;;;;;8.21;82.70;102439.41;5070714;28;20060;-71
2022/05/01 00:30:13;;;;;;;18.27;13.35;;;;;;;8.20;83.28;102440.22;5069931;28;20123;-71
2022/05/01 00:38:07;;;;;;;;;;;;;;;8.18;80.77;102438.50;5075552;28;20109;-71
2022/05/01 00:40:32;;;;;;;20.70;14.00;;;;;;;8.14;82.38;102435.00;5070678;28;19958;-71
2022/05/01 00:43:04;;;;;;;17.05;12.88;;;;;;;8.15;82.78;102431.53;5076047;28;20286;-71
2022/05/01 00:45:31;;;;;;;20.55;13.85;;;;;;;8.12;83.04;102435.81;5079543;28;20028;-71
2022/05/01 00:47:56;;;;;;;18.58;14.15;;;;;;;8.12;83.51;102436.69;5073721;28;20024;-71
2022/05/01 00:50:22;;;;;;;21.23;13.45;;;;;;;8.06;83.80;102426.22;5070642;28;20441;-71
2022/05/01 00:52:47;;;;;;;16.92;13.05;;;;;;;8.03;84.74;102430.50;5071264;28;20042;-71
2022/05/01 00:55:13;;;;;;;21.10;14.55;;;;;;;8.03;83.89;102421.00;5076164;28;20442;-71
2022/05/01 00:57:38;;;;;;;16.95;13.32;;;;;;;8.03;84.34;102418.38;5076561;28;20033;-71
2022/05/01 01:00:04;;;;;;;18.17;13.30;;;;;;;8.00;83.99;102425.28;5075493;28;20035;-71
2022/05/01 01:02:31;;;;;;;20.90;14.77;;;;;;;7.94;84.32;102418.28;5075236;28;20059;-71
2022/05/01 01:04:56;;;;;;;17.30;13.30;;;;;;;7.96;84.52;102419.19;5074748;28;20025;-71
2022/05/01 01:07:21;;;;;;;20.35;14.43;;;;;;;7.90;84.39;102421.69;5076857;28;20028;-71
2022/05/01 01:09:46;;;;;;;19.17;14.43;;;;;;;7.91;84.51;102420.81;5075874;28;20495;-71
2022/05/01 01:15:09;;;;;;;20.58;14.02;;;;;;;7.84;84.75;102419.88;5079886;28;20093;-71
2022/05/01 01:17:41;;;;;;;20.90;14.80;;;;;;;7.86;84.87;102418.19;5080486;28;20404;-72
2022/05/01 01:20:17;;;;;;;16.95;13.88;;;;;;;7.93;84.59;102417.41;5074610;28;20047;-71
2022/05/01 01:22:44;;;;;;;19.15;13.88;;;;;;;7.97;84.53;102424.38;5074954;28;20032;-71
2022/05/01 01:25:13;;;;;;;19.98;13.98;;;;;;;7.96;84.38;102411.38;5079948;28;20032;-71
2022/05/01 01:27:38;;;;;;;17.33;13.70;;;;;;;8.02;84.85;102413.19;5078986;28;20039;-71
2022/05/01 01:32:50;;;;;;;20.17;14.32;;;;;;;7.99;84.79;102414.03;5076848;28;20407;-71
2022/05/01 01:35:18;;;;;;;19.92;14.70;;;;;;;7.92;84.63;102414.81;5074563;28;20487;-71
2022/05/01 01:37:47;;;;;;;20.75;14.23;;;;;;;7.91;84.68;102413.94;5074110;28;20162;-71
2022/05/01 01:40:17;;;;;;;21.95;15.07;;;;;;;7.87;84.80;102414.72;5073819;28;20028;-71
2022/05/01 01:42:44;;;;;;;22.60;14.73;;;;;;;7.83;85.78;102412.09;5078150;28;20032;-71
2022/05/01 01:45:10;;;;;;;21.45;14.88;;;;;;;7.81;85.86;102411.19;5079751;28;20059;-71
2022/05/01 01:47:35;;;;;;;19.50;13.75;;;;;;;7.80;85.49;102410.31;5077980;28;20024;-71
2022/05/01 01:50:01;;;;;;;19.67;14.38;;;;;;;7.79;85.56;102410.31;5074132;28;20046;-71
2022/05/01 01:52:26;;;;;;;20.23;14.10;;;;;;;7.76;85.61;102412.84;5078155;28;20499;-72
2022/05/01 01:54:51;;;;;;;20.50;14.45;;;;;;;7.68;86.11;102408.44;5083921;28;20017;-72
2022/05/01 01:57:16;;;;;;;19.90;14.07;;;;;;;7.69;86.37;102412.78;5076620;28;20055;-72
2022/05/01 01:59:42;;;;;;;21.27;15.30;;;;;;;7.67;85.97;102416.19;5075267;28;20451;-72
2022/05/01 02:02:08;;;;;;;19.35;14.23;;;;;;;7.66;86.74;102410.13;5087754;28;20086;-71
2022/05/01 02:04:34;;;;;;;18.05;14.10;;;;;;;7.66;87.12;102422.25;5076089;28;20025;-72
2022/05/01 02:06:59;;;;;;;22.15;15.90;;;;;;;7.60;86.94;102399.66;5084086;28;20426;-71
2022/05/01 02:09:25;;;;;;;20.27;14.88;;;;;;;7.63;87.07;102415.28;5072882;28;20112;-71
2022/05/01 02:11:50;;;;;;;20.45;15.82;;;;;;;7.62;86.76;102407.44;5073599;28;20384;-71
2022/05/01 02:14:15;;;;;;;23.50;16.48;;;;;;;7.60;87.09;102411.78;5074013;28;20151;-71
2022/05/01 02:16:40;;;;;;;20.55;16.15;;;;;;;7.58;87.10;102406.53;5073230;28;20103;-71
2022/05/01 02:19:06;;;;;;;21.10;14.88;;;;;;;7.61;86.70;102400.53;5077098;28;20040;-71
2022/05/01 02:21:34;;;;;;;19.50;15.23;;;;;;;7.62;87.06;102404.84;5082850;28;20074;-71
2022/05/01 02:23:59;;;;;;;22.85;15.20;;;;;;;7.62;86.87;102403.16;5074036;28;20046;-72
2022/05/01 02:26:24;;;;;;;20.85;15.35;;;;;;;7.60;86.87;102404.84;5073534;28;20115;-71
2022/05/01 02:28:50;;;;;;;23.30;16.30;;;;;;;7.57;87.46;102401.34;5080344;28;20024;-71
2022/05/01 02:31:15;;;;;;;20.40;15.65;;;;;;;7.59;87.43;102397.94;5076171;28;20391;-71
2022/05/01 02:33:41;;;;;;;20.70;15.65;;;;;;;7.57;87.43;102398.75;5076864;28;20025;-71
2022/05/01 02:36:06;;;;;;;20.45;15.45;;;;;;;7.55;87.74;102396.13;5072902;28;20028;-71
2022/05/01 02:38:34;;;;;;;21.25;15.75;;;;;;;7.53;88.05;102389.19;5079354;28;20066;-71
2022/05/01 02:41:00;;;;;;;20.50;15.15;;;;;;;7.50;87.80;102390.88;5077903;28;20080;-71
2022/05/01 02:43:26;;;;;;;21.80;15.27;;;;;;;7.50;87.06;102384.81;5071856;28;20489;-71
2022/05/01 02:45:51;;;;;;;24.45;16.40;;;;;;;7.45;87.36;102387.34;5073246;28;20024;-71
2022/05/01 02:48:16;;;;;;;23.08;15.05;;;;;;;7.46;87.37;102390.81;5073334;28;20515;-71
2022/05/01 02:50:42;;;;;;;25.67;15.27;;;;;;;7.45;87.36;102387.34;5072519;28;20058;-71
2022/05/01 02:53:07;;;;;;;21.30;15.13;;;;;;;7.41;87.44;102385.56;5077480;28;20024;-71
2022/05/01 02:55:32;;;;;;;19.42;15.45;;;;;;;7.44;87.05;102387.31;5075680;28;20048;-71
2022/05/01 02:57:58;;;;;;;21.58;15.60;;;;;;;7.44;87.17;102383.00;5075359;28;20518;-72
2022/05/01 03:00:23;;;;;;;21.80;15.20;;;;;;;7.41;87.81;102379.50;5083092;28;20036;-71
2022/05/01 03:02:49;;;;;;;20.35;15.68;;;;;;;7.38;87.63;102382.03;5077839;28;20024;-71
2022/05/01 03:05:16;;;;;;;22.65;15.75;;;;;;;7.32;87.83;102374.16;5072173;28;20032;-71
2022/05/01 03:07:41;;;;;;;22.15;15.02;;;;;;;7.35;87.77;102379.41;5078694;28;20028;-72
2022/05/01 03:10:07;;;;;;;23.70;15.75;;;;;;;7.33;87.63;102378.53;5081105;28;20058;-71
2022/05/01 03:12:33;;;;;;;20.88;15.40;;;;;;;7.30;88.07;102374.16;5079777;28;20115;-71
2022/05/01 03:14:58;;;;;;;21.13;15.60;;;;;;;7.21;88.20;102380.06;5074158;28;20021;-71
2022/05/01 03:17:24;;;;;;;24.30;16.30;;;;;;;7.17;88.02;102375.69;5076248;28;20140;-72
2022/05/01 03:22:33;;;;;;;21.45;15.63;;;;;;;7.23;88.21;102378.38;5077376;28;20097;-71
2022/05/01 03:24:59;;;;;;;22.83;16.25;;;;;;;7.18;88.30;102377.44;5074992;28;20123;-71
2022/05/01 03:27:24;;;;;;;23.65;16.10;;;;;;;7.16;88.75;102371.38;5076045;28;20518;-71
2022/05/01 03:32:33;;;;;;;23.90;16.92;;;;;;;7.10;88.41;102363.50;5076491;28;20055;-71
2022/05/01 03:35:00;;;;;;;23.25;15.55;;;;;;;7.04;88.81;102369.44;5075360;28;20020;-71
2022/05/01 03:37:25;;;;;;;24.27;16.40;;;;;;;6.99;88.56;102365.91;5075790;28;20032;-71
2022/05/01 03:39:51;;;;;;;24.77;17.02;;;;;;;6.91;89.12;102372.69;5083994;28;20028;-72
2022/05/01 03:42:16;;;;;;;23.50;17.15;;;;;;;6.85;89.81;102367.41;5077356;28;20476;-71
2022/05/01 03:44:41;;;;;;;26.35;17.88;;;;;;;6.75;89.86;102366.38;5080481;28;20031;-71
2022/05/01 03:47:07;;;;;;;25.80;17.20;;;;;;;6.69;90.15;102357.63;5072370;28;20021;-71
2022/05/01 03:49:32;;;;;;;25.58;16.85;;;;;;;6.64;89.89;102360.16;5086601;28;20036;-72
2022/05/01 03:51:57;;;;;;;26.35;17.73;;;;;;;6.59;90.18;102366.09;5079750;28;20036;-71
2022/05/01 03:54:24;;;;;;;26.17;17.58;;;;;;;6.56;90.42;102364.31;5071408;28;20036;-71
2022/05/01 03:56:49;;;;;;;29.23;19.17;;;;;;;6.49;90.89;102359.88;5071772;28;20036;-71
2022/05/01 03:59:14;;;;;;;24.35;18.38;;;;;;;6.42;90.67;102369.28;5079797;28;20380;-71
2022/05/01 04:01:40;;;;;;;28.88;19.45;;;;;;;6.30;91.14;102362.13;5072758;28;20166;-72
2022/05/01 04:04:05;;;;;;;26.17;18.58;;;;;;;6.26;91.81;102364.66;5071904;28;20490;-71
2022/05/01 04:06:30;;;;;;;28.38;18.17;;;;;;;6.17;92.25;102367.94;5071693;28;20031;-71
2022/05/01 04:08:56;;;;;;;27.27;17.88;;;;;;;6.13;92.62;102368.72;5079249;28;20039;-71
2022/05/01 04:11:21;;;;;;;28.42;20.20;;;;;;;6.07;92.94;102366.00;5073263;28;20063;-71
2022/05/01 04:13:48;;;;;;;28.58;19.48;;;;;;;6.01;93.25;102371.06;5071345;28;20020;-71
2022/05/01 04:16:14;;;;;;;30.15;19.90;;;;;;;5.93;93.61;102367.47;5070932;28;20021;-71
2022/05/01 04:18:39;;;;;;;30.60;19.55;;;;;;;5.85;93.65;102368.16;5081875;28;20537;-71
2022/05/01 04:21:05;;;;;;;29.60;21.15;;;;;;;5.81;94.01;102371.50;5079517;28;20495;-71
2022/05/01 04:23:32;;;;;;;29.17;19.83;;;;;;;5.77;94.70;102369.69;5078695;28;20037;-72
2022/05/01 04:25:57;;;;;;;29.55;20.00;;;;;;;5.75;94.71;102370.50;5072027;28;20028;-71
2022/05/01 04:28:23;;;;;;;32.65;20.67;;;;;;;5.71;94.83;102368.69;5078912;28;20017;-71
2022/05/01 04:30:50;;;;;;;28.48;20.75;;;;;;;5.68;94.65;102366.06;5080758;28;20357;-71
2022/05/01 04:33:15;;;;;;;27.65;19.70;;;;;;;5.64;94.63;102349.59;5078611;28;20380;-71
2022/05/01 04:35:46;;;;;;;31.42;20.63;;;;;;;5.72;95.01;102361.00;5070644;28;20029;-71
2022/05/01 04:38:20;;;;;;;29.02;20.33;;;;;;;5.67;95.39;102365.19;5078460;28;20086;-71
2022/05/01 04:40:58;;;;;;;30.10;21.08;;;;;;;5.62;95.58;102369.38;5079040;28;20110;-71
2022/05/01 04:43:25;;;;;;;32.63;21.38;;;;;;;5.57;95.84;102363.25;5070775;28;20480;-71
2022/05/01 04:45:52;;;;;;;33.55;22.30;;;;;;;5.50;96.37;102366.53;5073361;28;20105;-71
2022/05/01 04:48:19;;;;;;;34.22;21.88;;;;;;;5.52;96.42;102372.59;5077425;28;20032;-71
2022/05/01 04:50:45;;;;;;;36.30;22.35;;;;;;;5.50;96.57;102363.97;5070760;28;20020;-71
2022/05/01 04:53:12;;;;;;;33.13;22.05;;;;;;;5.57;96.38;102378.75;5072277;28;20135;-72
2022/05/01 04:55:39;;;;;;;32.95;21.35;;;;;;;5.54;96.41;102366.63;5078168;28;20516;-71
2022/05/01 04:58:05;;;;;;;33.78;22.45;;;;;;;5.58;96.46;102365.84;5077748;28;20054;-71
2022/05/01 05:00:30;;;;;;;33.30;23.52;;;;;;;5.67;96.34;102379.84;5071386;28;20036;-71
2022/05/01 05:02:57;;;;;;;35.65;23.42;;;;;;;5.65;96.18;102366.84;5078421;28;20032;-71
2022/05/01 05:05:22;;;;;;;31.25;23.25;;;;;;;5.73;96.26;102365.31;5069791;28;20476;-71
2022/05/01 05:07:48;;;;;;;35.60;23.02;;;;;;;5.84;95.91;102376.75;5072404;28;20052;-72
2022/05/01 05:10:14;;;;;;;32.88;22.88;;;;;;;5.85;95.76;102368.16;5071190;28;20020;-71
2022/05/01 05:12:42;;;;;;;34.22;22.90;;;;;;;5.98;96.19;102382.22;5070242;28;20028;-71
2022/05/01 05:15:10;;;;;;;33.55;22.65;;;;;;;6.04;95.49;102381.50;5074193;28;20024;-71
2022/05/01 05:17:37;;;;;;;37.60;24.60;;;;;;;6.09;95.31;102380.75;5075679;28;20058;-71
2022/05/01 05:20:04;;;;;;;37.17;23.75;;;;;;;6.13;95.31;102380.81;5072767;28;20023;-71
2022/05/01 05:22:30;;;;;;;34.20;22.67;;;;;;;6.17;94.87;102378.28;5071300;28;20031;-71
2022/05/01 05:24:56;;;;;;;35.72;22.17;;;;;;;6.21;94.75;102385.31;5072949;28;20406;-71
2022/05/01 05:27:25;;;;;;;33.90;24.48;;;;;;;6.25;94.31;102378.47;5073938;28;20107;-71
2022/05/01 05:29:50;;;;;;;35.15;24.52;;;;;;;6.29;94.66;102386.31;5074378;28;20415;-71
2022/05/01 05:32:16;;;;;;;38.88;24.50;;;;;;;6.33;94.40;102393.28;5072523;28;20029;-71
2022/05/01 05:34:42;;;;;;;34.85;22.35;;;;;;;6.39;94.24;102384.75;5074401;28;20025;-71
2022/05/01 05:37:07;;;;;;;33.58;23.52;;;;;;;6.49;93.94;102394.44;5070433;28;20024;-71
2022/05/01 05:39:32;;;;;;;32.70;23.52;;;;;;;6.56;93.51;102392.84;5069961;28;20032;-71
2022/05/01 05:41:58;;;;;;;33.10;22.80;;;;;;;6.63;93.56;102391.22;5071010;28;20043;-71
2022/05/01 05:44:23;;;;;;;36.90;23.95;;;;;;;6.69;93.43;102388.75;5073962;28;20112;-71
2022/05/01 05:46:49;;;;;;;35.22;23.92;;;;;;;6.78;93.28;102389.78;5074082;28;20024;-71
2022/05/01 05:49:14;;;;;;;36.75;24.00;;;;;;;6.85;92.40;102395.94;5080466;28;20033;-71
2022/05/01 05:51:39;;;;;;;33.88;24.08;;;;;;;6.93;92.25;102394.34;5075283;28;20064;-71
2022/05/01 05:54:04;;;;;;;34.10;23.63;;;;;;;7.00;92.05;102388.41;5076102;28;20033;-72
2022/05/01 05:56:30;;;;;;;38.65;24.38;;;;;;;7.11;91.96;102398.94;5087286;28;20040;-71
2022/05/01 05:58:56;;;;;;;32.13;23.17;;;;;;;7.18;91.19;102389.53;5074198;28;20024;-71
2022/05/01 06:01:21;;;;;;;36.35;25.05;;;;;;;7.43;90.73;102393.38;5081463;28;20036;-71
2022/05/01 06:03:46;;;;;;;32.63;23.15;;;;;;;7.48;90.02;102378.72;5082885;28;20028;-71
2022/05/01 06:06:12;;;;;;;34.00;23.25;;;;;;;7.71;88.59;102390.28;5074300;28;20484;-71
2022/05/01 06:08:40;;;;;;;32.42;23.42;;;;;;;7.84;88.88;102387.84;5081838;28;20020;-72
2022/05/01 06:11:05;;;;;;;35.17;24.73;;;;;;;8.00;88.95;102388.91;5073415;28;20112;-71
2022/05/01 06:13:30;;;;;;;29.65;22.35;;;;;;;8.11;87.84;102382.09;5076267;28;20111;-72
2022/05/01 06:15:57;;;;;;;35.20;23.50;;;;;;;8.26;86.88;102397.88;5073416;28;20427;-71
2022/05/01 06:18:22;;;;;;;30.88;22.17;;;;;;;8.33;86.41;102396.22;5074773;28;20042;-71
2022/05/01 06:20:48;;;;;;;33.25;22.95;;;;;;;8.44;86.20;102399.84;5072927;28;20036;-72
2022/05/01 06:23:13;;;;;;;31.48;22.30;;;;;;;8.54;85.39;102404.28;5076533;28;20441;-72
2022/05/01 06:25:39;;;;;;;35.47;23.73;;;;;;;8.63;85.63;102406.97;5073275;28;20052;-71
2022/05/01 06:28:05;;;;;;;36.00;23.15;;;;;;;8.68;83.74;102396.59;5072827;28;20388;-71
2022/05/01 06:30:32;;;;;;;32.15;23.75;;;;;;;8.77;83.58;102401.88;5073688;28;20028;-71
2022/05/01 06:32:57;;;;;;;33.95;22.05;;;;;;;8.83;84.26;102407.16;5080100;28;20020;-72
2022/05/01 06:35:24;;;;;;;30.42;21.45;;;;;;;8.96;83.51;102408.13;5072109;28;20040;-71
2022/05/01 06:37:50;;;;;;;33.38;22.00;;;;;;;9.01;82.21;102411.63;5080478;28;20103;-71
2022/05/01 06:40:15;;;;;;;32.05;21.98;;;;;;;8.99;81.68;102405.56;5073731;28;20111;-71
2022/05/01 06:42:40;;;;;;;30.05;21.67;;;;;;;9.04;82.26;102408.19;5078411;28;20494;-71
2022/05/01 06:45:06;;;;;;;29.98;22.77;;;;;;;9.19;81.53;102418.72;5079340;28;20029;-72
2022/05/01 06:47:31;;;;;;;31.98;22.73;;;;;;;9.18;80.79;102403.06;5074747;28;20487;-72
2022/05/01 06:49:57;;;;;;;30.25;21.80;;;;;;;9.28;80.84;102412.69;5073127;28;20028;-71
2022/05/01 06:52:23;;;;;;;29.45;21.10;;;;;;;9.38;81.40;102415.38;5076255;28;20040;-71
2022/05/01 06:54:59;;;;;;;28.13;20.65;;;;;;;9.43;80.06;102409.31;5076407;28;20028;-71
2022/05/01 06:57:25;;;;;;;30.13;21.60;;;;;;;9.46;80.05;102411.94;5073105;28;20194;-71
2022/05/01 06:59:50;;;;;;;31.23;21.63;;;;;;;9.54;81.23;102402.44;5074988;28;20571;-72
2022/05/01 07:02:16;;;;;;;30.23;20.50;;;;;;;9.58;79.75;102409.41;5084589;28;20503;-71
2022/05/01 07:04:41;;;;;;;30.00;20.50;;;;;;;9.62;80.02;102403.38;5072144;28;20382;-71
2022/05/01 07:07:06;;;;;;;25.52;19.38;;;;;;;9.64;79.15;102413.78;5072620;28;20020;-71
2022/05/01 07:09:32;;;;;;;30.38;20.02;;;;;;;9.65;78.48;102415.53;5074021;28;20041;-71
2022/05/01 07:11:57;;;;;;;28.40;19.30;;;;;;;9.62;78.35;102411.19;5078026;28;20023;-71
2022/05/01 07:14:23;;;;;;;27.90;19.98;;;;;;;9.60;79.19;102413.75;5073113;28;20029;-71
2022/05/01 07:16:48;;;;;;;30.40;20.75;;;;;;;9.55;78.97;102415.47;5072834;28;20020;-71
2022/05/01 07:19:14;;;;;;;28.60;20.38;;;;;;;9.53;79.48;102405.91;5076624;28;20513;-71
2022/05/01 07:21:39;;;;;;;27.45;19.55;;;;;;;9.58;80.35;102417.19;5072491;28;20111;-71
2022/05/01 07:24:06;;;;;;;25.13;19.02;;;;;;;9.64;77.74;102413.78;5079145;28;20033;-71
2022/05/01 07:26:33;;;;;;;25.98;19.23;;;;;;;9.67;77.19;102409.44;5073968;28;20074;-71
2022/05/01 07:28:59;;;;;;;30.05;20.25;;;;;;;9.71;78.85;102415.53;5075683;28;20032;-71
2022/05/01 07:31:25;;;;;;;26.52;19.17;;;;;;;9.78;78.12;102413.00;5071722;28;20024;-71
2022/05/01 07:33:50;;;;;;;27.40;19.67;;;;;;;9.87;77.90;102413.88;5079932;28;20043;-71
2022/05/01 07:36:15;;;;;;;28.40;19.20;;;;;;;9.97;77.39;102413.06;5071749;28;20029;-71
2022/05/01 07:38:41;;;;;;;26.83;19.40;;;;;;;10.05;75.83;102427.00;5078056;28;20596;-72
2022/05/01 07:41:07;;;;;;;25.10;16.95;;;;;;;10.11;74.71;102421.81;5083667;28;20032;-71
2022/05/01 07:43:32;;;;;;;25.98;17.02;;;;;;;10.18;76.39;102409.69;5073326;28;20031;-72
2022/05/01 07:45:57;;;;;;;25.08;18.05;;;;;;;10.25;75.66;102419.25;5078397;28;20032;-71
2022/05/01 07:48:23;;;;;;;27.58;17.70;;;;;;;10.29;74.83;102421.03;5074161;28;20028;-71
2022/05/01 07:50:48;;;;;;;24.40;17.08;;;;;;;10.34;75.02;102414.09;5072038;28;20043;-71
2022/05/01 07:53:14;;;;;;;23.77;17.10;;;;;;;10.35;75.53;102417.56;5080662;28;20028;-71
2022/05/01 07:55:40;;;;;;;23.23;18.33;;;;;;;10.49;74.09;102418.47;5073123;28;20048;-71
2022/05/01 07:58:05;;;;;;;24.10;18.20;;;;;;;10.63;76.10;102410.69;5076756;28;20024;-71
2022/05/01 08:00:30;;;;;;;25.77;17.95;;;;;;;10.73;74.32;102415.06;5074424;28;20040;-71
2022/05/01 08:05:40;;;;;;;24.13;16.98;;;;;;;10.90;74.39;102410.69;5074945;28;20097;-71
2022/05/01 08:08:05;;;;;;;23.83;17.17;;;;;;;10.95;71.92;102408.97;5070585;28;20107;-72
2022/05/01 08:10:32;;;;;;;18.88;14.70;;;;;;;10.89;70.12;102401.16;5071728;28;20040;-71
2022/05/01 08:12:58;;;;;;;26.42;16.67;;;;;;;10.96;70.54;102405.50;5072647;28;20034;-71
2022/05/01 08:15:23;;;;;;;22.98;16.02;;;;;;;11.02;70.82;102408.09;5078126;28;20028;-71
2022/05/01 08:17:48;;;;;;;21.15;15.60;;;;;;;11.01;70.32;102403.72;5078496;28;20056;-71
2022/05/01 08:23:08;;;;;;;19.95;14.45;;;;;;;11.16;70.57;102404.59;5078779;28;20041;-71
2022/05/01 08:25:34;;;;;;;20.83;14.35;;;;;;;11.19;67.80;102397.63;5071367;28;20032;-71
2022/05/01 08:28:00;;;;;;;21.25;13.35;;;;;;;11.29;68.22;102401.09;5075673;28;20074;-71
2022/05/01 08:30:25;;;;;;;15.40;10.85;;;;;;;11.38;67.06;102394.97;5075896;28;20028;-71
2022/05/01 08:32:51;;;;;;;13.07;9.38;;;;;;;11.53;64.33;102392.34;5078042;28;20047;-71
2022/05/01 08:35:18;;;;;;;15.93;10.20;;;;;;;11.76;62.70;102391.41;5077207;28;20429;-71
2022/05/01 08:37:43;;;;;;;12.95;10.02;;;;;;;12.00;63.03;102398.28;5075501;28;20174;-71
2022/05/01 08:40:09;;;;;;;12.32;9.27;;;;;;;12.20;62.96;102396.47;5072603;28;20130;-71
2022/05/01 08:42:36;;;;;;;11.27;7.03;;;;;;;12.40;57.32;102385.88;5072024;28;20483;-71
2022/05/01 08:45:03;;;;;;;12.40;7.90;;;;;;;12.61;59.93;102392.72;5074094;28;20039;-71
2022/05/01 08:47:40;;;;;;;11.57;7.70;;;;;;;12.88;59.46;102395.13;5075508;28;20051;-71
2022/05/01 08:50:08;;;;;;;7.97;6.88;;;;;;;13.20;55.01;102393.94;5073711;28;20036;-71
2022/05/01 08:52:36;;;;;;;8.60;7.00;;;;;;;13.45;52.05;102389.38;5074765;28;20043;-71
2022/05/01 08:55:04;;;;;;;9.77;7.18;;;;;;;13.75;51.87;102387.28;5077273;28;20383;-71
2022/05/01 08:57:33;;;;;;;7.68;5.60;;;;;;;13.93;49.69;102387.06;5076351;28;20082;-71
2022/05/01 08:59:58;;;;;;;7.18;5.50;;;;;;;14.01;50.99;102384.34;5075904;28;20628;-72
2022/05/01 09:02:25;;;;;;;8.52;6.22;;;;;;;13.90;50.70;102386.25;5075563;28;20032;-75
2022/05/01 09:04:50;;;;;;;9.38;6.57;;;;;;;13.67;49.30;102381.25;5070422;28;20422;-79
2022/05/01 09:07:16;;;;;;;7.47;6.25;;;;;;;13.49;50.03;102377.97;5076837;28;20472;-76
2022/05/01 09:09:41;;;;;;;7.03;5.93;;;;;;;13.41;49.51;102386.81;5075959;28;20471;-76
2022/05/01 09:14:51;;;;;;;9.52;5.78;;;;;;;13.43;51.74;102390.28;5073932;28;20090;-71
2022/05/01 09:17:19;;;;;;;10.90;6.80;;;;;;;13.57;51.43;102388.38;5071660;28;20115;-71
2022/05/01 09:19:53;;;;;;;8.10;6.50;;;;;;;13.80;50.43;102391.59;5073208;28;20031;-71
2022/05/01 09:22:20;;;;;;;8.50;6.88;;;;;;;13.93;47.30;102388.78;5075869;28;20039;-71
2022/05/01 09:24:45;;;;;;;9.55;6.40;;;;;;;14.33;48.20;102381.28;5076216;28;20039;-71
2022/05/01 09:27:24;;;;;;;11.13;7.60;;;;;;;14.81;48.93;102378.78;5076245;28;20091;-71
2022/05/01 09:30:05;;;;;;;10.45;6.55;;;;;;;15.10;43.99;102385.31;5081891;28;20476;-71
2022/05/01 09:32:36;;;;;;;9.85;6.90;;;;;;;15.16;46.84;102380.81;5078441;28;20035;-72
2022/05/01 09:35:02;;;;;;;9.45;7.22;;;;;;;15.23;44.43;102386.81;5088452;28;20025;-71
2022/05/01 09:37:27;;;;;;;9.98;6.68;;;;;;;15.30;43.44;102383.16;5087054;28;20034;-71
2022/05/01 09:39:52;;;;;;;7.50;6.63;;;;;;;15.27;43.77;102382.38;5076751;28;20036;-71
2022/05/01 09:42:19;;;;;;;7.93;6.60;;;;;;;15.10;43.15;102380.91;5085341;28;20035;-72
2022/05/01 09:45:17;;;;;;;9.07;6.80;;;;;;;15.11;45.41;102372.16;5079736;28;20025;-72
2022/05/01 09:47:44;;;;;;;9.10;6.65;;;;;;;15.36;43.57;102384.81;5080297;28;20024;-72
2022/05/01 09:50:11;;;;;;;10.32;6.78;;;;;;;15.46;43.36;102378.50;5076062;28;20044;-71
2022/05/01 09:52:58;;;;;;;8.85;6.88;;;;;;;15.51;45.95;102371.41;5073765;28;20048;-71
2022/05/01 09:55:24;;;;;;;10.35;7.20;;;;;;;15.51;41.28;102374.03;5075564;28;20059;-72
2022/05/01 09:58:00;;;;;;;7.82;6.40;;;;;;;15.52;44.90;102375.75;5081345;28;20020;-72
2022/05/01 10:00:40;;;;;;;8.48;6.63;;;;;;;15.60;45.13;102371.22;5075056;28;20496;-71
2022/05/01 10:03:23;;;;;;;8.98;6.65;;;;;;;15.62;44.40;102372.03;5079752;28;20039;-70
2022/05/01 10:05:49;;;;;;;10.53;6.90;;;;;;;15.56;42.62;102364.28;5074992;28;20077;-70
2022/05/01 10:08:17;;;;;;;10.70;6.35;;;;;;;15.71;44.34;102368.41;5074120;28;20177;-71
2022/05/01 10:10:45;;;;;;;11.77;7.45;;;;;;;15.73;43.35;102370.97;5075654;28;20035;-70
2022/05/01 10:13:11;;;;;;;8.75;7.53;;;;;;;15.66;41.65;102371.13;5080666;28;20062;-71
2022/05/01 10:15:37;;;;;;;8.43;6.90;;;;;;;15.73;42.22;102366.63;5077692;28;20117;-71
2022/05/01 10:18:02;;;;;;;9.05;7.35;;;;;;;15.85;39.33;102368.97;5072118;28;20067;-71
2022/05/01 10:20:28;;;;;;;10.68;7.00;;;;;;;16.08;41.96;102363.19;5076567;28;20027;-71
2022/05/01 10:22:55;;;;;;;14.40;6.97;;;;;;;16.43;40.92;102358.91;5074512;28;20491;-71
2022/05/01 10:25:20;;;;;;;11.65;7.32;;;;;;;16.70;41.87;102356.50;5072025;28;20028;-71
2022/05/01 10:28:04;;;;;;;11.25;7.55;;;;;;;16.73;40.03;102352.00;5072137;28;20024;-72
2022/05/01 10:33:57;;;;;;;9.20;6.93;;;;;;;16.99;41.95;102354.00;5077253;28;20125;-71
2022/05/01 10:36:37;;;;;;;8.15;7.18;;;;;;;16.69;38.53;102349.50;5073073;28;20074;-71
2022/05/01 10:39:09;;;;;;;9.32;7.53;;;;;;;16.43;37.90;102352.78;5086185;28;20021;-72
2022/05/01 10:41:43;;;;;;;9.75;7.03;;;;;;;16.28;39.46;102352.22;5072949;28;20024;-72
2022/05/01 10:44:24;;;;;;;;;;;;;;;16.32;43.00;102342.50;5086391;28;20090;-71
2022/05/01 10:46:58;;;;;;;9.18;6.75;;;;;;;16.05;41.68;102349.25;5073766;28;20552;-71
2022/05/01 10:49:34;;;;;;;8.85;6.93;;;;;;;16.10;41.84;102342.13;5084946;28;20469;-71
2022/05/01 10:52:22;;;;;;;8.40;6.88;;;;;;;15.93;43.10;102337.25;5073606;28;20028;-71
2022/05/01 10:54:52;;;;;;;10.93;7.20;;;;;;;15.76;41.71;102339.38;5082545;28;20468;-72
2022/05/01 10:57:18;;;;;;;12.73;7.25;;;;;;;15.64;41.52;102333.44;5074691;28;20476;-71
2022/05/01 10:59:46;;;;;;;8.70;7.03;;;;;;;15.62;41.92;102335.22;5083457;28;20020;-71
2022/05/01 11:02:24;;;;;;;8.93;6.75;;;;;;;15.52;41.58;102335.47;5073976;28;20384;-71
2022/05/01 11:04:54;;;;;;;10.68;7.80;;;;;;;15.41;41.74;102333.91;5081997;28;20052;-71
2022/05/01 11:07:21;;;;;;;8.30;7.20;;;;;;;15.34;42.46;102324.44;5075472;28;20021;-71
2022/05/01 11:09:49;;;;;;;11.00;8.52;;;;;;;15.32;41.50;102322.72;5081169;28;20047;-71
2022/05/01 11:12:22;;;;;;;10.32;7.15;;;;;;;15.40;43.14;102324.31;5072846;28;20107;-71
2022/05/01 11:15:04;;;;;;;10.15;6.80;;;;;;;15.52;43.96;102323.19;5073008;28;20028;-71
2022/05/01 11:17:36;;;;;;;9.85;7.40;;;;;;;15.47;40.63;102319.81;5076405;28;20468;-71
2022/05/01 11:20:14;;;;;;;12.50;7.78;;;;;;;15.55;42.25;102314.38;5079190;28;20040;-72
2022/05/01 11:22:40;;;;;;;9.50;7.65;;;;;;;15.68;41.35;102319.38;5078231;28;20035;-71
2022/05/01 11:25:10;;;;;;;11.52;7.32;;;;;;;15.82;42.77;102305.06;5077697;28;20074;-71
2022/05/01 11:27:53;;;;;;;10.38;7.30;;;;;;;16.04;42.81;102311.56;5077618;28;20419;-71
2022/05/01 11:30:27;;;;;;;9.60;7.87;;;;;;;16.14;41.33;102307.81;5075338;28;20038;-72
2022/05/01 11:33:10;;;;;;;9.00;7.25;;;;;;;16.20;41.78;102308.59;5079737;28;20471;-71
2022/05/01 11:36:04;;;;;;;11.23;7.10;;;;;;;16.32;41.86;102300.41;5073859;28;20017;-71
2022/05/01 11:38:38;;;;;;;8.40;6.90;;;;;;;16.33;41.07;102299.50;5082664;28;20044;-71
2022/05/01 11:41:04;;;;;;;10.70;6.85;;;;;;;16.22;39.99;102291.88;5071835;28;20029;-71
2022/05/01 11:43:31;;;;;;;9.50;7.38;;;;;;;16.20;40.73;102295.44;5083646;28;20032;-71
2022/05/01 11:45:58;;;;;;;10.90;7.43;;;;;;;16.11;38.33;102297.38;5078059;28;20464;-71
2022/05/01 11:48:24;;;;;;;10.18;7.15;;;;;;;16.04;39.28;102290.53;5083024;28;20047;-71